Time;durP1;ratioP1;P1;durP2;ratioP2;P2;SDS_P1;SDS_P2;PMS_P1;PMS_P2;Temp;Humidity;BMP_temperature;BMP_pressure;BME280_temperature;BME280_humidity;BME280_pressure;Samples;Min_cycle;Max_cycle;Signal;HPM_P1;HPM_P2
2022/04/27 00:00:04;;;;;;;10.93;6.90;;;;;;;;;;5119112;27;20091;-71
2022/04/27 00:02:33;;;;;;;11.18;7.68;;;;;;;;;;5120848;27;20059;-71
2022/04/27 00:04:59;;;;;;;11.77;7.53;;;;;;;;;;5119140;27;20096;-71
2022/04/27 00:07:26;;;;;;;13.82;7.68;;;;;;;;;;5120851;27;20477;-71
2022/04/27 00:09:52;;;;;;;12.60;7.45;;;;;;;;;;5120161;27;20475;-71
2022/04/27 00:12:20;;;;;;;14.73;7.85;;;;;;;;;;5103346;27;20215;-71
2022/04/27 00:14:47;;;;;;;11.93;7.60;;;;;;;;;;5104559;27;20044;-71
2022/04/27 00:17:13;;;;;;;10.98;6.53;;;;;;;;;;5082980;28;20142;-71
2022/04/27 00:19:39;;;;;;;11.73;7.30;;;;;;;;;;5090511;27;20130;-72
2022/04/27 00:22:05;;;;;;;11.60;7.03;;;;;;;;;;5087977;28;20222;-72
2022/04/27 00:24:31;;;;;;;11.88;6.68;;;;;;;;;;5091330;27;20046;-72
2022/04/27 00:26:57;;;;;;;11.10;6.70;;;;;;;;;;5119406;27;20062;-71
2022/04/27 00:29:23;;;;;;;11.75;6.75;;;;;;;;;;5118540;27;20144;-71
2022/04/27 00:31:49;;;;;;;12.70;7.30;;;;;;;;;;5123614;27;20075;-72
2022/04/27 00:34:15;;;;;;;10.68;6.80;;;;;;;;;;5132697;27;20319;-72
2022/04/27 00:36:41;;;;;;;10.77;6.75;;;;;;;;;;5082524;28;20047;-71
2022/04/27 00:39:07;;;;;;;11.05;6.03;;;;;;;;;;5086898;27;20054;-72
2022/04/27 00:41:33;;;;;;;9.73;6.00;;;;;;;;;;5123776;27;20042;-72
2022/04/27 00:43:59;;;;;;;10.93;6.40;;;;;;;;;;5121384;27;20055;-72
2022/04/27 00:46:25;;;;;;;12.60;6.82;;;;;;;;;;5106787;27;20487;-72
2022/04/27 00:48:51;;;;;;;10.70;5.68;;;;;;;;;;5118906;27;20214;-71
2022/04/27 00:51:17;;;;;;;11.75;6.50;;;;;;;;;;5070821;27;20452;-71
2022/04/27 00:53:43;;;;;;;11.15;6.07;;;;;;;;;;5053668;27;20046;-72
2022/04/27 00:56:10;;;;;;;10.18;6.35;;;;;;;;;;5109766;27;20454;-71
2022/04/27 00:58:36;;;;;;;10.02;5.60;;;;;;;;;;5102628;27;20074;-71
2022/04/27 01:01:02;;;;;;;10.75;5.75;;;;;;;;;;5082767;27;20601;-71
2022/04/27 01:03:28;;;;;;;8.93;5.30;;;;;;;;;;5093837;27;20039;-71
2022/04/27 01:05:55;;;;;;;9.77;5.53;;;;;;;;;;5117795;27;20078;-71
2022/04/27 01:08:21;;;;;;;9.90;5.88;;;;;;;;;;5141468;27;20130;-70
2022/04/27 01:10:48;;;;;;;8.40;5.15;;;;;;;;;;5104389;27;20317;-71
2022/04/27 01:13:15;;;;;;;9.48;5.60;;;;;;;;;;5122960;27;20126;-71
2022/04/27 01:15:41;;;;;;;9.60;5.45;;;;;;;;;;5103692;27;20038;-71
2022/04/27 01:18:10;;;;;;;11.70;5.75;;;;;;;;;;5122584;27;20428;-71
2022/04/27 01:20:37;;;;;;;9.60;5.45;;;;;;;;;;5111445;27;20280;-71
2022/04/27 01:23:04;;;;;;;8.05;4.70;;;;;;;;;;5096391;27;20104;-70
2022/04/27 01:25:45;;;;;;;8.52;5.07;;;;;;;;;;5071560;28;20051;-70
2022/04/27 01:28:11;;;;;;;8.25;4.55;;;;;;;;;;5095846;27;20337;-71
2022/04/27 01:30:38;;;;;;;8.75;5.15;;;;;;;;;;5110896;27;20051;-71
2022/04/27 01:33:08;;;;;;;8.20;4.38;;;;;;;;;;5121449;27;20087;-71
2022/04/27 01:35:34;;;;;;;7.90;4.55;;;;;;;;;;5102294;28;20388;-71
2022/04/27 01:38:00;;;;;;;8.48;5.03;;;;;;;;;;5064851;28;20391;-71
2022/04/27 01:40:26;;;;;;;8.20;4.40;;;;;;;;;;5108751;27;20054;-71
2022/04/27 01:42:52;;;;;;;8.07;4.72;;;;;;;;;;5122309;27;20043;-71
2022/04/27 01:45:18;;;;;;;9.23;4.38;;;;;;;;;;5138561;27;20095;-71
2022/04/27 01:47:44;;;;;;;8.63;4.18;;;;;;;;;;5105225;27;20038;-71
2022/04/27 01:50:10;;;;;;;8.80;4.75;;;;;;;;;;5119779;27;20062;-71
2022/04/27 01:55:20;;;;;;;;;;;;;;;;;;5120909;27;20129;-72
2022/04/27 01:57:48;;;;;;;7.68;3.83;;;;;;;;;;5104730;27;20388;-72
2022/04/27 02:00:14;;;;;;;7.80;4.57;;;;;;;;;;5105548;28;20055;-72
2022/04/27 02:02:40;;;;;;;8.52;4.35;;;;;;;;;;5081314;28;20055;-72
2022/04/27 02:05:07;;;;;;;7.78;4.38;;;;;;;;;;5120651;27;20045;-71
2022/04/27 02:07:33;;;;;;;6.40;3.42;;;;;;;;;;5121862;27;20061;-72
2022/04/27 02:09:59;;;;;;;6.60;3.70;;;;;;;;;;5106052;28;20043;-72
2022/04/27 02:12:25;;;;;;;8.85;4.25;;;;;;;;;;5073621;28;20058;-72
2022/04/27 02:14:51;;;;;;;9.63;4.05;;;;;;;;;;5097380;27;20038;-72
2022/04/27 02:17:17;;;;;;;8.02;4.00;;;;;;;;;;5122293;27;20062;-72
2022/04/27 02:19:43;;;;;;;7.65;3.90;;;;;;;;;;5120850;27;20034;-72
2022/04/27 02:22:08;;;;;;;7.00;3.83;;;;;;;;;;5122445;27;20066;-72
2022/04/27 02:24:34;;;;;;;7.28;3.60;;;;;;;;;;5114772;28;20172;-71
2022/04/27 02:27:01;;;;;;;6.75;3.45;;;;;;;;;;5101618;28;20054;-71
2022/04/27 02:29:28;;;;;;;6.82;3.42;;;;;;;;;;5105425;27;20172;-71
2022/04/27 02:31:54;;;;;;;7.57;3.90;;;;;;;;;;5104873;27;20046;-70
2022/04/27 02:34:20;;;;;;;8.93;4.18;;;;;;;;;;5119650;27;20198;-71
2022/04/27 02:36:46;;;;;;;6.75;3.85;;;;;;;;;;5121406;27;20199;-70
2022/04/27 02:39:12;;;;;;;7.25;3.58;;;;;;;;;;5120005;27;20038;-71
2022/04/27 02:41:38;;;;;;;7.50;3.85;;;;;;;;;;5105936;28;20049;-71
2022/04/27 02:44:04;;;;;;;7.65;3.90;;;;;;;;;;5099459;27;20592;-71
2022/04/27 02:46:30;;;;;;;7.00;3.25;;;;;;;;;;5088046;27;20419;-71
2022/04/27 02:51:51;;;;;;;;;;;;;;;;;;5126053;27;20051;-71
2022/04/27 02:54:18;;;;;;;6.63;3.38;;;;;;;;;;5123452;27;20307;-71
2022/04/27 02:56:44;;;;;;;7.63;3.60;;;;;;;;;;5125426;27;20132;-71
2022/04/27 02:59:10;;;;;;;5.85;3.38;;;;;;;;;;5118113;27;20434;-70
2022/04/27 03:01:38;;;;;;;6.25;3.17;;;;;;;;;;5084505;28;20036;-71
2022/04/27 03:04:04;;;;;;;6.15;3.33;;;;;;;;;;5070926;27;20565;-71
2022/04/27 03:06:30;;;;;;;7.47;3.50;;;;;;;;;;5124865;27;20227;-71
2022/04/27 03:08:56;;;;;;;6.75;3.17;;;;;;;;;;5105813;27;20035;-71
2022/04/27 03:11:22;;;;;;;6.80;3.45;;;;;;;;;;5125766;27;20083;-71
2022/04/27 03:13:48;;;;;;;5.95;3.13;;;;;;;;;;5123920;27;20030;-71
2022/04/27 03:16:14;;;;;;;6.53;3.05;;;;;;;;;;5106786;27;20045;-71
2022/04/27 03:18:40;;;;;;;6.75;3.45;;;;;;;;;;5125058;27;20309;-71
2022/04/27 03:21:06;;;;;;;6.82;3.28;;;;;;;;;;5141293;27;20096;-71
2022/04/27 03:23:32;;;;;;;6.15;3.08;;;;;;;;;;5107806;27;20079;-72
2022/04/27 03:25:58;;;;;;;6.70;3.17;;;;;;;;;;5115724;27;20047;-72
2022/04/27 03:28:24;;;;;;;6.45;2.92;;;;;;;;;;5104298;27;20047;-71
2022/04/27 03:30:50;;;;;;;6.40;3.25;;;;;;;;;;5119707;27;20047;-71
2022/04/27 03:33:17;;;;;;;6.60;2.70;;;;;;;;;;5104646;27;20056;-71
2022/04/27 03:35:43;;;;;;;6.10;3.00;;;;;;;;;;5072007;27;21775;-70
2022/04/27 03:38:09;;;;;;;6.47;3.33;;;;;;;;;;5083146;27;20060;-70
2022/04/27 03:40:35;;;;;;;5.80;3.03;;;;;;;;;;5117207;27;20066;-71
2022/04/27 03:43:01;;;;;;;6.63;3.03;;;;;;;;;;5124465;27;20066;-71
2022/04/27 03:45:27;;;;;;;6.68;3.00;;;;;;;;;;5105153;27;20322;-72
2022/04/27 03:47:53;;;;;;;6.05;2.80;;;;;;;;;;5123943;27;20141;-72
2022/04/27 03:50:19;;;;;;;6.20;2.80;;;;;;;;;;5121818;27;20239;-70
2022/04/27 03:52:46;;;;;;;6.00;2.92;;;;;;;;;;5123996;27;20124;-71
2022/04/27 03:55:12;;;;;;;8.20;2.92;;;;;;;;;;5121403;27;20226;-70
2022/04/27 03:57:39;;;;;;;6.32;2.80;;;;;;;;;;5123650;27;20043;-71
2022/04/27 04:00:05;;;;;;;6.35;2.83;;;;;;;;;;5140542;27;20507;-71
2022/04/27 04:02:32;;;;;;;6.85;2.97;;;;;;;;;;5124293;27;20611;-71
2022/04/27 04:04:58;;;;;;;6.90;2.90;;;;;;;;;;5086312;27;20229;-71
2022/04/27 04:07:24;;;;;;;7.15;2.92;;;;;;;;;;5059846;27;20043;-71
2022/04/27 04:09:50;;;;;;;6.05;2.80;;;;;;;;;;5111041;27;20449;-71
2022/04/27 04:12:16;;;;;;;6.03;2.72;;;;;;;;;;5108911;27;20067;-71
2022/04/27 04:14:42;;;;;;;5.90;2.70;;;;;;;;;;5109865;27;20129;-71
2022/04/27 04:17:08;;;;;;;5.93;2.85;;;;;;;;;;5123718;27;20042;-71
2022/04/27 04:19:34;;;;;;;5.95;2.75;;;;;;;;;;5121646;27;20038;-71
2022/04/27 04:22:00;;;;;;;6.03;2.75;;;;;;;;;;5123339;27;20050;-71
2022/04/27 04:24:26;;;;;;;5.75;2.90;;;;;;;;;;5121233;27;20227;-71
2022/04/27 04:29:37;;;;;;;5.78;2.70;;;;;;;;;;5121517;27;20121;-72
2022/04/27 04:32:03;;;;;;;5.22;2.42;;;;;;;;;;5123800;27;20210;-70
2022/04/27 04:34:29;;;;;;;5.57;2.47;;;;;;;;;;5114073;27;20149;-71
2022/04/27 04:36:55;;;;;;;6.97;2.75;;;;;;;;;;5074407;28;20032;-71
2022/04/27 04:39:21;;;;;;;5.30;2.60;;;;;;;;;;5090811;27;20042;-71
2022/04/27 04:41:48;;;;;;;5.90;2.60;;;;;;;;;;5096565;27;20126;-71
2022/04/27 04:44:14;;;;;;;4.82;2.47;;;;;;;;;;5092607;27;20152;-73
2022/04/27 04:46:40;;;;;;;6.50;2.75;;;;;;;;;;5074003;28;20084;-70
2022/04/27 04:49:06;;;;;;;6.63;2.80;;;;;;;;;;5090957;27;20047;-71
2022/04/27 04:51:33;;;;;;;6.32;2.33;;;;;;;;;;5105565;27;20065;-71
2022/04/27 04:53:59;;;;;;;5.85;2.55;;;;;;;;;;5118042;27;20039;-72
2022/04/27 04:56:25;;;;;;;5.22;2.45;;;;;;;;;;5081926;28;20080;-72
2022/04/27 04:58:51;;;;;;;6.80;2.60;;;;;;;;;;5081628;27;20052;-72
2022/04/27 05:01:17;;;;;;;5.82;2.40;;;;;;;;;;5085302;27;20122;-71
2022/04/27 05:03:43;;;;;;;5.25;2.40;;;;;;;;;;5102172;27;20183;-71
2022/04/27 05:06:09;;;;;;;4.95;2.10;;;;;;;;;;5138551;27;20391;-71
2022/04/27 05:08:35;;;;;;;4.97;2.15;;;;;;;;;;5121791;27;20049;-71
2022/04/27 05:11:01;;;;;;;5.00;2.30;;;;;;;;;;5120870;27;20039;-71
2022/04/27 05:13:27;;;;;;;5.38;2.05;;;;;;;;;;5122563;27;20140;-72
2022/04/27 05:15:53;;;;;;;7.05;2.85;;;;;;;;;;5120629;27;20500;-71
2022/04/27 05:18:19;;;;;;;5.18;2.30;;;;;;;;;;5110694;27;20050;-70
2022/04/27 05:20:45;;;;;;;5.57;2.42;;;;;;;;;;5134875;27;20035;-71
2022/04/27 05:23:11;;;;;;;4.55;2.17;;;;;;;;;;5077840;27;20047;-71
2022/04/27 05:25:38;;;;;;;5.47;2.38;;;;;;;;;;5070540;27;20133;-71
2022/04/27 05:28:04;;;;;;;4.68;2.05;;;;;;;;;;5101970;27;20775;-70
2022/04/27 05:33:18;;;;;;;6.03;2.65;;;;;;;;;;5090049;28;20454;-71
2022/04/27 05:35:44;;;;;;;5.03;2.30;;;;;;;;;;5105305;27;20081;-71
2022/04/27 05:38:11;;;;;;;5.45;2.30;;;;;;;;;;5083148;28;20463;-71
2022/04/27 05:40:41;;;;;;;5.15;2.30;;;;;;;;;;5096049;28;20043;-71
2022/04/27 05:43:08;;;;;;;5.32;2.33;;;;;;;;;;5101747;27;20118;-72
2022/04/27 05:45:34;;;;;;;6.40;2.28;;;;;;;;;;5133903;27;20037;-72
2022/04/27 05:48:00;;;;;;;4.72;2.10;;;;;;;;;;5122406;27;20050;-71
2022/04/27 05:50:27;;;;;;;4.68;1.92;;;;;;;;;;5120081;27;20499;-71
2022/04/27 05:52:54;;;;;;;6.07;2.40;;;;;;;;;;5122310;27;20602;-72
2022/04/27 05:55:20;;;;;;;4.80;2.15;;;;;;;;;;5103069;28;20103;-72
2022/04/27 05:57:46;;;;;;;5.97;2.22;;;;;;;;;;5064523;28;20040;-72
2022/04/27 06:00:13;;;;;;;5.65;2.35;;;;;;;;;;5107606;27;20047;-72
2022/04/27 06:02:39;;;;;;;4.25;1.85;;;;;;;;;;5101590;28;20043;-72
2022/04/27 06:05:09;;;;;;;4.40;1.80;;;;;;;;;;5128789;27;20083;-72
2022/04/27 06:07:36;;;;;;;4.72;2.00;;;;;;;;;;5104827;27;20039;-72
2022/04/27 06:10:06;;;;;;;4.93;1.92;;;;;;;;;;5103616;27;20046;-72
2022/04/27 06:12:35;;;;;;;5.00;1.90;;;;;;;;;;5140484;27;20104;-71
2022/04/27 06:15:02;;;;;;;5.10;1.90;;;;;;;;;;5120117;27;20182;-71
2022/04/27 06:17:28;;;;;;;4.90;2.30;;;;;;;;;;5104891;27;20038;-72
2022/04/27 06:19:54;;;;;;;5.43;2.13;;;;;;;;;;5122590;27;20407;-72
2022/04/27 06:22:21;;;;;;;4.82;2.13;;;;;;;;;;5144853;27;20172;-72
2022/04/27 06:24:46;;;;;;;5.60;2.20;;;;;;;;;;5123601;27;20235;-72
2022/04/27 06:27:12;;;;;;;5.32;1.77;;;;;;;;;;5126010;27;20053;-72
2022/04/27 06:29:38;;;;;;;4.53;1.88;;;;;;;;;;5123861;27;20476;-72
2022/04/27 06:32:05;;;;;;;5.35;1.90;;;;;;;;;;5144988;27;20047;-72
2022/04/27 06:34:31;;;;;;;4.10;1.80;;;;;;;;;;5143269;27;20567;-72
2022/04/27 06:36:57;;;;;;;4.25;1.77;;;;;;;;;;5091820;27;20055;-72
2022/04/27 06:39:23;;;;;;;4.35;1.90;;;;;;;;;;5069183;27;21508;-71
2022/04/27 06:41:49;;;;;;;4.25;1.70;;;;;;;;;;5084917;28;20039;-72
2022/04/27 06:44:15;;;;;;;5.10;1.88;;;;;;;;;;5074490;27;20038;-71
2022/04/27 06:46:41;;;;;;;5.45;1.83;;;;;;;;;;5099001;27;20344;-71
2022/04/27 06:49:07;;;;;;;4.13;1.75;;;;;;;;;;5085666;27;20256;-71
2022/04/27 06:51:33;;;;;;;4.05;1.80;;;;;;;;;;5114026;27;20042;-71
2022/04/27 06:53:59;;;;;;;6.53;1.92;;;;;;;;;;5104812;27;20043;-72
2022/04/27 06:56:25;;;;;;;5.45;2.00;;;;;;;;;;5108793;27;20546;-71
2022/04/27 06:58:51;;;;;;;4.47;1.67;;;;;;;;;;5079088;28;20043;-72
2022/04/27 07:01:18;;;;;;;4.25;1.65;;;;;;;;;;5086673;27;20530;-70
2022/04/27 07:03:44;;;;;;;4.10;1.85;;;;;;;;;;5104861;27;20118;-71
2022/04/27 07:06:10;;;;;;;5.50;1.80;;;;;;;;;;5122687;27;20054;-70
2022/04/27 07:08:36;;;;;;;3.70;1.65;;;;;;;;;;5125176;27;20230;-71
2022/04/27 07:11:03;;;;;;;4.10;1.98;;;;;;;;;;5105251;27;20131;-70
2022/04/27 07:13:29;;;;;;;4.47;1.77;;;;;;;;;;5104214;27;20460;-71
2022/04/27 07:16:00;;;;;;;4.65;2.25;;;;;;;;;;5097115;27;20551;-71
2022/04/27 07:18:26;;;;;;;4.72;1.70;;;;;;;;;;5054362;27;20039;-71
2022/04/27 07:20:53;;;;;;;3.72;1.55;;;;;;;;;;5097262;27;20480;-71
2022/04/27 07:23:19;;;;;;;4.45;1.88;;;;;;;;;;5103601;27;20031;-71
2022/04/27 07:25:45;;;;;;;4.03;1.70;;;;;;;;;;5103817;27;20062;-71
2022/04/27 07:28:11;;;;;;;3.72;1.55;;;;;;;;;;5083316;28;20043;-71
2022/04/27 07:30:37;;;;;;;4.35;1.67;;;;;;;;;;5105042;27;20035;-70
2022/04/27 07:33:04;;;;;;;3.80;1.60;;;;;;;;;;5087123;27;20047;-70
2022/04/27 07:35:30;;;;;;;4.68;1.52;;;;;;;;;;5098913;27;20098;-72
2022/04/27 07:37:56;;;;;;;3.88;1.58;;;;;;;;;;5124295;27;20208;-72
2022/04/27 07:40:22;;;;;;;4.18;1.92;;;;;;;;;;5093642;27;20430;-72
2022/04/27 07:42:48;;;;;;;4.10;1.65;;;;;;;;;;5072635;27;20043;-71
2022/04/27 07:45:15;;;;;;;5.03;1.67;;;;;;;;;;5049742;27;20058;-71
2022/04/27 07:47:45;;;;;;;6.25;1.75;;;;;;;;;;5077005;27;20051;-72
2022/04/27 07:50:12;;;;;;;4.22;1.40;;;;;;;;;;5088162;27;20043;-72
2022/04/27 07:52:38;;;;;;;3.88;1.50;;;;;;;;;;5079748;27;20490;-71
2022/04/27 07:55:05;;;;;;;3.33;1.48;;;;;;;;;;5062369;27;20318;-70
2022/04/27 07:57:32;;;;;;;3.88;1.50;;;;;;;;;;5081364;27;20055;-71
2022/04/27 07:59:59;;;;;;;6.10;2.00;;;;;;;;;;5096076;27;20194;-71
2022/04/27 08:02:25;;;;;;;4.50;1.65;;;;;;;;;;5091115;27;20488;-71
2022/04/27 08:04:51;;;;;;;3.45;1.40;;;;;;;;;;5091931;27;20043;-71
2022/04/27 08:07:17;;;;;;;4.53;1.65;;;;;;;;;;5106804;27;20031;-71
2022/04/27 08:09:43;;;;;;;4.43;1.50;;;;;;;;;;5091041;27;20065;-71
2022/04/27 08:12:09;;;;;;;4.28;1.55;;;;;;;;;;5089424;27;20039;-71
2022/04/27 08:14:36;;;;;;;4.65;1.42;;;;;;;;;;5074386;27;20611;-70
2022/04/27 08:17:03;;;;;;;5.38;1.80;;;;;;;;;;5087241;27;20039;-71
2022/04/27 08:19:29;;;;;;;3.50;1.60;;;;;;;;;;5098892;27;20046;-71
2022/04/27 08:21:55;;;;;;;4.10;1.52;;;;;;;;;;5123344;27;20074;-70
2022/04/27 08:24:24;;;;;;;2.97;1.30;;;;;;;;;;5104315;27;20046;-71
2022/04/27 08:26:51;;;;;;;3.67;1.50;;;;;;;;;;5116451;27;20163;-71
2022/04/27 08:29:17;;;;;;;4.05;1.45;;;;;;;;;;5088345;27;20039;-71
2022/04/27 08:31:43;;;;;;;3.53;1.52;;;;;;;;;;5109594;27;20039;-71
2022/04/27 08:34:09;;;;;;;4.40;1.60;;;;;;;;;;5117647;27;20256;-71
2022/04/27 08:36:35;;;;;;;4.50;1.45;;;;;;;;;;5083780;27;20578;-71
2022/04/27 08:39:02;;;;;;;4.60;1.50;;;;;;;;;;5103374;27;20565;-72
2022/04/27 08:41:28;;;;;;;4.85;1.42;;;;;;;;;;5121352;27;20707;-71
2022/04/27 08:43:55;;;;;;;4.10;1.50;;;;;;;;;;5121199;27;20377;-72
2022/04/27 08:46:21;;;;;;;4.38;1.60;;;;;;;;;;5141691;27;20038;-72
2022/04/27 08:48:48;;;;;;;4.75;1.60;;;;;;;;;;5122115;27;20239;-72
2022/04/27 08:51:14;;;;;;;4.60;1.70;;;;;;;;;;5121432;27;20035;-72
2022/04/27 08:53:42;;;;;;;4.68;1.63;;;;;;;;;;5119235;27;20239;-72
2022/04/27 08:56:08;;;;;;;3.38;1.40;;;;;;;;;;5072834;27;20343;-72
2022/04/27 08:58:34;;;;;;;4.47;1.50;;;;;;;;;;5086970;28;20540;-72
2022/04/27 09:01:00;;;;;;;3.03;1.40;;;;;;;;;;5115389;27;20042;-72
2022/04/27 09:03:27;;;;;;;5.03;2.05;;;;;;;;;;5070352;27;20055;-71
2022/04/27 09:05:53;;;;;;;5.43;1.90;;;;;;;;;;5079116;27;20131;-71
2022/04/27 09:08:20;;;;;;;6.68;1.92;;;;;;;;;;5110759;27;20127;-72
2022/04/27 09:10:46;;;;;;;6.05;1.58;;;;;;;;;;5091625;27;20071;-70
2022/04/27 09:13:12;;;;;;;5.72;1.70;;;;;;;;;;5092459;28;20031;-71
2022/04/27 09:15:38;;;;;;;5.43;1.70;;;;;;;;;;5098404;27;20054;-71
2022/04/27 09:21:03;;;;;;;7.18;1.70;;;;;;;;;;5081011;27;20512;-71
2022/04/27 09:23:37;;;;;;;7.10;2.20;;;;;;;;;;5077004;27;20275;-71
2022/04/27 09:26:03;;;;;;;;;;;;;;;;;;5073325;27;20047;-71
2022/04/27 09:28:30;;;;;;;4.07;1.70;;;;;;;;;;5082263;27;19981;-71
2022/04/27 09:30:56;;;;;;;4.25;1.67;;;;;;;;;;5065246;28;20062;-73
2022/04/27 09:33:36;;;;;;;8.45;2.13;;;;;;;;;;5067002;28;20053;-71
2022/04/27 09:36:18;;;;;;;7.97;2.38;;;;;;;;;;5066827;28;20376;-71
2022/04/27 09:38:44;;;;;;;6.80;2.35;;;;;;;;;;5077584;28;20368;-71
2022/04/27 09:41:10;;;;;;;8.63;2.33;;;;;;;;;;5085892;28;20251;-71
2022/04/27 09:43:46;;;;;;;6.00;2.45;;;;;;;;;;5099030;28;20070;-71
2022/04/27 09:46:17;;;;;;;5.80;2.22;;;;;;;;;;5068112;28;20085;-71
2022/04/27 09:48:46;;;;;;;9.95;2.50;;;;;;;;;;5072144;28;20055;-70
2022/04/27 09:51:15;;;;;;;7.75;2.50;;;;;;;;;;5089573;28;20423;-71
2022/04/27 09:53:45;;;;;;;7.07;2.60;;;;;;;;;;5093553;27;20071;-71
2022/04/27 09:56:12;;;;;;;7.75;2.70;;;;;;;;;;5104173;27;20178;-72
2022/04/27 09:58:44;;;;;;;7.07;2.20;;;;;;;;;;5071407;27;20094;-70
2022/04/27 10:01:16;;;;;;;8.43;2.28;;;;;;;;;;5064527;27;20110;-72
2022/04/27 10:03:42;;;;;;;7.18;2.60;;;;;;;;;;5068006;28;21559;-71
2022/04/27 10:06:08;;;;;;;6.43;2.17;;;;;;;;;;5072341;27;20048;-71
2022/04/27 10:08:36;;;;;;;6.80;2.45;;;;;;;;;;5093330;28;20054;-71
2022/04/27 10:11:05;;;;;;;5.93;2.30;;;;;;;;;;5088387;27;20057;-71
2022/04/27 10:13:32;;;;;;;7.03;2.95;;;;;;;;;;5090632;27;20044;-71
2022/04/27 10:15:58;;;;;;;9.30;3.60;;;;;;;;;;5092662;27;20148;-71
2022/04/27 10:18:25;;;;;;;7.97;3.55;;;;;;;;;;5095425;28;20131;-72
2022/04/27 10:20:53;;;;;;;11.18;3.97;;;;;;;;;;5088138;27;20536;-72
2022/04/27 10:23:32;;;;;;;8.95;3.67;;;;;;;;;;5086202;27;20406;-71
2022/04/27 10:26:13;;;;;;;6.53;2.97;;;;;;;;;;5083524;27;20119;-71
2022/04/27 10:28:40;;;;;;;10.15;3.80;;;;;;;;;;5084541;28;20062;-73
2022/04/27 10:31:08;;;;;;;8.43;3.85;;;;;;;;;;5122988;27;20131;-71
2022/04/27 10:33:40;;;;;;;9.32;4.55;;;;;;;;;;5126438;27;20053;-69
2022/04/27 10:36:25;;;;;;;11.68;4.75;;;;;;;;;;5104809;27;20050;-69
2022/04/27 10:39:10;;;;;;;12.93;5.18;;;;;;;;;;5103585;28;20052;-69
2022/04/27 10:41:36;;;;;;;14.20;6.85;;;;;;;;;;5085076;28;20477;-69
2022/04/27 10:44:02;;;;;;;12.32;6.57;;;;;;;;;;5070107;27;20044;-68
2022/04/27 10:46:36;;;;;;;11.80;5.78;;;;;;;;;;5125249;27;20038;-68
2022/04/27 10:49:23;;;;;;;12.10;5.75;;;;;;;;;;5122638;27;20496;-68
2022/04/27 10:52:19;;;;;;;11.68;5.70;;;;;;;;;;5125069;27;20046;-69
2022/04/27 10:54:45;;;;;;;12.32;5.40;;;;;;;;;;5092321;27;20461;-69
2022/04/27 10:57:18;;;;;;;12.70;4.88;;;;;;;;;;5124517;27;20098;-69
2022/04/27 10:59:44;;;;;;;9.88;4.55;;;;;;;;;;5123203;27;20480;-69
2022/04/27 11:02:50;;;;;;;11.90;5.55;;;;;;;;;;5125169;27;20103;-69
2022/04/27 11:05:16;;;;;;;10.02;4.70;;;;;;;;;;5005025;28;20044;-69
2022/04/27 11:07:53;;;;;;;11.50;4.72;;;;;;;;;;5005718;28;20041;-69
2022/04/27 11:10:21;;;;;;;7.72;3.90;;;;;;;;;;5057981;27;20503;-69
2022/04/27 11:12:57;;;;;;;10.75;4.60;;;;;;;;;;5121752;27;20047;-69
2022/04/27 11:15:24;;;;;;;9.50;4.55;;;;;;;;;;5119951;27;20062;-69
2022/04/27 11:18:03;;;;;;;11.10;4.82;;;;;;;;;;5104432;27;20119;-69
2022/04/27 11:20:37;;;;;;;8.35;4.03;;;;;;;;;;5119540;27;20063;-69
2022/04/27 11:23:07;;;;;;;10.27;4.10;;;;;;;;;;5104081;27;20046;-69
2022/04/27 11:25:35;;;;;;;8.55;4.30;;;;;;;;;;5120571;27;20509;-69
2022/04/27 11:28:02;;;;;;;9.68;4.10;;;;;;;;;;5120573;27;20036;-69
2022/04/27 11:30:29;;;;;;;10.63;4.22;;;;;;;;;;5119479;27;20070;-69
2022/04/27 11:32:55;;;;;;;8.88;4.10;;;;;;;;;;5104369;27;20506;-69
2022/04/27 11:35:25;;;;;;;9.90;3.97;;;;;;;;;;5118060;27;20047;-69
2022/04/27 11:37:55;;;;;;;10.98;4.07;;;;;;;;;;5123037;27;20133;-69
2022/04/27 11:40:25;;;;;;;9.55;4.20;;;;;;;;;;5119167;27;20043;-69
2022/04/27 11:42:52;;;;;;;7.22;3.75;;;;;;;;;;5120946;27;20051;-69
2022/04/27 11:45:19;;;;;;;10.65;4.07;;;;;;;;;;5119205;27;20520;-69
2022/04/27 11:47:45;;;;;;;7.97;4.55;;;;;;;;;;5120813;27;20126;-69
2022/04/27 11:50:11;;;;;;;9.70;4.18;;;;;;;;;;5118694;27;20043;-69
2022/04/27 11:52:37;;;;;;;8.20;3.97;;;;;;;;;;5120765;27;20415;-69
2022/04/27 11:55:15;;;;;;;10.35;4.40;;;;;;;;;;5102218;27;20490;-69
2022/04/27 11:57:41;;;;;;;9.45;4.10;;;;;;;;;;5120738;27;20051;-69
2022/04/27 12:00:08;;;;;;;8.30;3.88;;;;;;;;;;5091348;28;20043;-69
2022/04/27 12:02:35;;;;;;;9.43;3.75;;;;;;;;;;5100177;28;20047;-69
2022/04/27 12:05:02;;;;;;;8.80;3.60;;;;;;;;;;5095451;28;20182;-70
2022/04/27 12:07:34;;;;;;;8.65;3.70;;;;;;;;;;5079658;28;20052;-69
2022/04/27 12:10:00;;;;;;;9.45;4.03;;;;;;;;;;5099373;27;20051;-69
2022/04/27 12:12:27;;;;;;;9.57;3.90;;;;;;;;;;5119876;27;20556;-69
2022/04/27 12:14:54;;;;;;;7.25;3.70;;;;;;;;;;5093725;28;20066;-69
2022/04/27 12:17:39;;;;;;;10.18;3.92;;;;;;;;;;5082414;28;20188;-69
2022/04/27 12:20:06;;;;;;;8.65;3.72;;;;;;;;;;5108750;27;20164;-69
2022/04/27 12:22:32;;;;;;;7.85;3.50;;;;;;;;;;5120215;27;20110;-69
2022/04/27 12:25:01;;;;;;;7.25;3.38;;;;;;;;;;5118531;27;20074;-69
2022/04/27 12:27:28;;;;;;;8.25;3.58;;;;;;;;;;5119647;27;20043;-68
2022/04/27 12:30:04;;;;;;;8.82;3.92;;;;;;;;;;5109546;27;20066;-68
2022/04/27 12:32:33;;;;;;;8.80;3.38;;;;;;;;;;5099692;28;20140;-68
2022/04/27 12:37:51;;;;;;;6.50;3.45;;;;;;;;;;5119861;27;20042;-68
2022/04/27 12:40:17;;;;;;;9.07;3.47;;;;;;;;;;5101119;27;20199;-69
2022/04/27 12:43:05;;;;;;;7.50;3.55;;;;;;;;;;5102470;27;20043;-69
2022/04/27 12:45:31;;;;;;;8.07;3.38;;;;;;;;;;5119026;27;20062;-69
2022/04/27 12:47:57;;;;;;;7.57;3.33;;;;;;;;;;5119348;27;20096;-69
2022/04/27 12:50:23;;;;;;;8.52;3.60;;;;;;;;;;5116687;27;20068;-69
2022/04/27 12:52:50;;;;;;;7.95;3.55;;;;;;;;;;5119777;27;20115;-70
2022/04/27 12:55:16;;;;;;;7.32;3.40;;;;;;;;;;5100839;27;20066;-68
2022/04/27 12:57:50;;;;;;;7.07;3.13;;;;;;;;;;5119682;27;20058;-68
2022/04/27 13:00:17;;;;;;;9.77;3.33;;;;;;;;;;5119802;27;20552;-68
2022/04/27 13:02:44;;;;;;;9.18;3.72;;;;;;;;;;5119286;27;20159;-68
2022/04/27 13:05:10;;;;;;;8.00;3.03;;;;;;;;;;5099805;27;20039;-68
2022/04/27 13:07:36;;;;;;;6.93;3.35;;;;;;;;;;5118899;27;20118;-67
2022/04/27 13:12:48;;;;;;;8.95;3.13;;;;;;;;;;5120637;27;20043;-68
2022/04/27 13:15:14;;;;;;;8.10;3.38;;;;;;;;;;5117134;27;20054;-68
2022/04/27 13:17:42;;;;;;;7.13;3.38;;;;;;;;;;5119078;27;20273;-68
2022/04/27 13:20:11;;;;;;;8.02;3.17;;;;;;;;;;5118310;27;20047;-68
2022/04/27 13:22:38;;;;;;;6.93;3.17;;;;;;;;;;5118881;27;20115;-68
2022/04/27 13:25:05;;;;;;;8.38;3.35;;;;;;;;;;5113985;27;20038;-69
2022/04/27 13:27:31;;;;;;;7.13;3.30;;;;;;;;;;5079377;28;20549;-68
2022/04/27 13:29:57;;;;;;;6.40;2.88;;;;;;;;;;5053476;28;20289;-68
2022/04/27 13:32:24;;;;;;;7.43;3.13;;;;;;;;;;5089016;28;20517;-68
2022/04/27 13:34:50;;;;;;;11.10;3.42;;;;;;;;;;5096893;27;20084;-68
2022/04/27 13:37:16;;;;;;;7.05;3.20;;;;;;;;;;5098890;28;20044;-69
2022/04/27 13:39:42;;;;;;;6.95;3.17;;;;;;;;;;5103873;27;20072;-69
2022/04/27 13:42:08;;;;;;;12.82;3.55;;;;;;;;;;5077931;28;20052;-69
2022/04/27 13:44:34;;;;;;;13.77;3.78;;;;;;;;;;5078049;28;20085;-70
2022/04/27 13:47:00;;;;;;;11.55;3.90;;;;;;;;;;5074322;28;20035;-69
2022/04/27 13:49:26;;;;;;;9.25;3.47;;;;;;;;;;5087746;27;20081;-70
2022/04/27 13:51:52;;;;;;;10.75;3.72;;;;;;;;;;5118478;28;20626;-70
2022/04/27 13:54:18;;;;;;;9.55;3.70;;;;;;;;;;5117162;28;20035;-70
2022/04/27 13:56:45;;;;;;;10.00;3.90;;;;;;;;;;5120154;28;20050;-70
2022/04/27 13:59:11;;;;;;;11.70;4.75;;;;;;;;;;5079582;28;20078;-69
2022/04/27 14:01:38;;;;;;;10.57;5.07;;;;;;;;;;5067773;28;20279;-69
2022/04/27 14:04:04;;;;;;;15.75;6.55;;;;;;;;;;5061633;28;20071;-70
2022/04/27 14:06:30;;;;;;;11.77;5.43;;;;;;;;;;5099910;28;20170;-70
2022/04/27 14:08:56;;;;;;;14.95;5.55;;;;;;;;;;5098470;28;20078;-69
2022/04/27 14:14:07;;;;;;;11.98;5.25;;;;;;;;;;5092513;28;20109;-70
2022/04/27 14:19:18;;;;;;;10.43;4.88;;;;;;;;;;5100253;28;20365;-69
2022/04/27 14:21:44;;;;;;;10.77;5.85;;;;;;;;;;5118366;28;20054;-69
2022/04/27 14:24:11;;;;;;;12.93;6.25;;;;;;;;;;5099145;28;20043;-69
2022/04/27 14:26:37;;;;;;;15.55;5.70;;;;;;;;;;5101870;28;20130;-69
2022/04/27 14:29:03;;;;;;;16.25;6.55;;;;;;;;;;5098620;28;20094;-70
2022/04/27 14:31:29;;;;;;;12.88;6.22;;;;;;;;;;5083148;28;20476;-69
2022/04/27 14:33:55;;;;;;;18.15;6.22;;;;;;;;;;5079821;28;20475;-69
2022/04/27 14:36:22;;;;;;;10.35;5.85;;;;;;;;;;5087792;28;20466;-69
2022/04/27 14:38:48;;;;;;;13.82;5.78;;;;;;;;;;5060938;28;20504;-69
2022/04/27 14:41:16;;;;;;;13.43;5.30;;;;;;;;;;5097377;28;20043;-69
2022/04/27 14:43:42;;;;;;;11.02;5.70;;;;;;;;;;5101336;28;20497;-69
2022/04/27 14:46:08;;;;;;;12.30;5.38;;;;;;;;;;5108765;27;20043;-69
2022/04/27 14:48:34;;;;;;;11.75;5.47;;;;;;;;;;5073299;28;20088;-69
2022/04/27 14:51:01;;;;;;;10.48;5.65;;;;;;;;;;5070276;28;20035;-70
2022/04/27 14:53:27;;;;;;;17.05;6.57;;;;;;;;;;5088348;28;20126;-70
2022/04/27 14:55:52;;;;;;;11.18;5.57;;;;;;;;;;5093581;27;20135;-70
2022/04/27 14:58:18;;;;;;;13.23;6.35;;;;;;;;;;5087932;28;20511;-70
2022/04/27 15:00:45;;;;;;;11.95;5.80;;;;;;;;;;5115481;27;20054;-69
2022/04/27 15:03:11;;;;;;;13.05;6.18;;;;;;;;;;5097944;27;20040;-69
2022/04/27 15:05:37;;;;;;;14.68;6.13;;;;;;;;;;5097376;27;20075;-69